Lisburn, United Kingdom
Current Conditions -  °F | °C
As of 10:50 AM on Friday 19 Dec 2014 (Local Time) from EGAC Reporting Station
Few Clouds Few Clouds  
Wind Chill: 34°   Ceiling: Unl
Heat Index: 43°   Visibility: 6mi
Dew Point: 36°   Wind: 20mph
Humidity: 76%   Direction: 250°WSW
Pressure: 29.83"   Gusts: NA
Location:  54.51°N, 6.04°W
Report Text: EGAC 191050Z 25017KT 9999 FEW012 06/02 Q1010
Loading
Personal Weather Stations






























Interactive Weather Map New forecast layout! Learn more

10-Day Weather Forecast

Advertisements
Track Severe Weather on mobile